Time;durP1;ratioP1;P1;durP2;ratioP2;P2;SDS_P1;SDS_P2;PMS_P1;PMS_P2;Temp;Humidity;BMP_temperature;BMP_pressure;BME280_temperature;BME280_humidity;BME280_pressure;Samples;Min_cycle;Max_cycle;Signal;HPM_P1;HPM_P2
2021/12/04 00:00:22;;;;;;;2.37;2.23;;;;;;;9.38;100.00;98683.13;5071886;28;20672;-59
2021/12/04 00:02:49;;;;;;;5.00;4.70;;;;;;;9.39;100.00;98690.00;5071777;28;20287;-59
2021/12/04 00:05:16;;;;;;;5.33;3.93;;;;;;;9.40;100.00;98693.44;5071832;28;20695;-60
2021/12/04 00:07:45;;;;;;;2.70;2.50;;;;;;;9.39;100.00;98700.34;5071531;28;20202;-60
2021/12/04 00:10:17;;;;;;;9.10;4.43;;;;;;;9.29;100.00;98704.19;5071355;28;20200;-59
2021/12/04 00:12:44;;;;;;;5.27;2.97;;;;;;;9.30;100.00;98708.47;5071455;28;20200;-59
2021/12/04 00:15:12;;;;;;;4.53;3.47;;;;;;;9.28;100.00;98710.28;5071291;28;20220;-59
2021/12/04 00:17:39;;;;;;;2.27;2.07;;;;;;;9.33;100.00;98720.47;5071563;28;20199;-59
2021/12/04 00:20:09;;;;;;;2.50;2.33;;;;;;;9.24;100.00;98716.47;5071388;28;20218;-59
2021/12/04 00:22:36;;;;;;;2.50;2.33;;;;;;;9.30;100.00;98713.66;5071387;28;20287;-59
2021/12/04 00:25:05;;;;;;;4.30;3.30;;;;;;;9.35;100.00;98706.56;5070952;28;20192;-56
2021/12/04 00:27:32;;;;;;;3.07;2.20;;;;;;;9.45;100.00;98707.06;5071279;28;20192;-59
2021/12/04 00:29:59;;;;;;;4.10;2.93;;;;;;;9.47;100.00;98718.22;5071127;28;20202;-59
2021/12/04 00:32:30;;;;;;;6.93;2.97;;;;;;;9.43;100.00;98714.91;5070734;28;20295;-56
2021/12/04 00:35:07;;;;;;;3.30;2.43;;;;;;;9.45;100.00;98707.06;5070287;28;20223;-57
2021/12/04 00:37:51;;;;;;;11.13;4.00;;;;;;;9.51;100.00;98708.56;5071038;28;20630;-57
2021/12/04 00:43:21;;;;;;;2.13;1.20;;;;;;;9.52;100.00;98710.28;5070835;28;20702;-59
2021/12/04 00:51:13;;;;;;;1.87;1.77;;;;;;;9.69;100.00;98724.28;5070465;28;20199;-57
2021/12/04 00:53:40;;;;;;;1.30;1.20;;;;;;;9.71;100.00;98717.28;5070377;28;20200;-55
2021/12/04 00:56:08;;;;;;;1.37;1.13;;;;;;;9.77;100.00;98716.22;5070431;28;20721;-56
2021/12/04 00:58:35;;;;;;;1.73;1.63;;;;;;;9.64;100.00;98715.00;5070650;28;20195;-55
2021/12/04 01:01:04;;;;;;;1.77;1.77;;;;;;;9.58;100.00;98718.66;5070357;28;20196;-55
2021/12/04 01:03:31;;;;;;;2.93;2.30;;;;;;;9.48;100.00;98718.13;5070444;28;20656;-56
2021/12/04 01:05:58;;;;;;;3.73;3.13;;;;;;;9.39;100.00;98699.50;5070926;28;20301;-59
2021/12/04 01:08:24;;;;;;;2.67;0.77;;;;;;;9.52;100.00;98715.44;5070560;28;20199;-60
2021/12/04 01:10:51;;;;;;;3.60;2.33;;;;;;;9.27;100.00;98674.06;5070497;28;20286;-60
2021/12/04 01:13:20;;;;;;;2.03;1.83;;;;;;;9.57;100.00;98710.94;5070853;28;20249;-60
2021/12/04 01:15:47;;;;;;;1.33;1.30;;;;;;;9.54;100.00;98703.28;5070410;28;20219;-60
2021/12/04 01:18:14;;;;;;;1.37;1.33;;;;;;;9.54;100.00;98711.91;5070523;28;20245;-59
2021/12/04 01:20:41;;;;;;;2.33;1.60;;;;;;;9.42;100.00;98709.78;5070479;28;20282;-62
2021/12/04 01:23:08;;;;;;;1.47;1.13;;;;;;;9.34;100.00;98709.22;5069932;28;20200;-56
2021/12/04 01:25:37;;;;;;;1.30;1.13;;;;;;;9.40;100.00;98699.47;5070051;28;20202;-56
2021/12/04 01:28:05;;;;;;;3.13;2.30;;;;;;;9.44;100.00;98693.28;5069980;28;20200;-56
2021/12/04 01:30:34;;;;;;;1.07;0.97;;;;;;;9.49;100.00;98690.50;5070023;28;20195;-57
2021/12/04 01:33:01;;;;;;;1.83;1.73;;;;;;;9.50;100.00;98687.00;5069981;28;20295;-55
2021/12/04 01:35:28;;;;;;;1.90;1.70;;;;;;;9.48;100.00;98679.28;5069631;28;20318;-57
2021/12/04 01:37:55;;;;;;;3.60;2.60;;;;;;;9.52;100.00;98680.03;5069988;28;20202;-57
2021/12/04 01:40:22;;;;;;;1.30;1.20;;;;;;;9.58;100.00;98684.16;5069956;28;20196;-56
2021/12/04 01:42:50;;;;;;;2.47;1.97;;;;;;;9.52;100.00;98646.34;5069884;28;20199;-56
2021/12/04 01:45:19;;;;;;;3.60;1.50;;;;;;;9.54;100.00;98672.19;5070032;28;20576;-56
2021/12/04 01:47:47;;;;;;;2.60;1.33;;;;;;;9.51;100.00;98654.19;5070027;28;20279;-57
2021/12/04 01:50:14;;;;;;;1.37;1.30;;;;;;;9.59;100.00;98672.88;5070184;28;20576;-60
2021/12/04 01:52:41;;;;;;;0.40;0.40;;;;;;;9.54;100.00;98677.38;5070300;28;20196;-60
2021/12/04 01:55:09;;;;;;;0.87;0.87;;;;;;;9.48;100.00;98674.09;5070121;28;20286;-60
2021/12/04 01:57:37;;;;;;;0.97;0.97;;;;;;;9.27;100.00;98664.56;5070240;28;20668;-59
2021/12/04 02:00:06;;;;;;;1.20;1.20;;;;;;;9.36;100.00;98674.59;5070310;28;20196;-60
2021/12/04 02:02:33;;;;;;;1.17;0.80;;;;;;;9.42;100.00;98678.69;5070155;28;20203;-60
2021/12/04 02:05:01;;;;;;;3.57;0.93;;;;;;;9.30;100.00;98664.44;5070099;28;20592;-60
2021/12/04 02:07:30;;;;;;;2.47;1.93;;;;;;;9.31;100.00;98670.47;5070384;28;20230;-60
2021/12/04 02:09:57;;;;;;;0.50;0.50;;;;;;;9.31;100.00;98662.72;5070169;28;20235;-59
2021/12/04 02:12:24;;;;;;;1.03;1.03;;;;;;;9.33;100.00;98664.34;5070136;28;20313;-60
2021/12/04 02:14:51;;;;;;;0.70;0.70;;;;;;;9.32;100.00;98656.63;5069900;28;20295;-60
2021/12/04 02:17:18;;;;;;;1.07;1.07;;;;;;;9.52;100.00;98648.94;5069998;28;20607;-59
2021/12/04 02:19:46;;;;;;;0.30;0.30;;;;;;;9.68;100.00;98650.06;5069912;28;20604;-59
2021/12/04 02:22:15;;;;;;;0.50;0.50;;;;;;;9.73;100.00;98648.09;5072492;28;20200;-59
2021/12/04 02:24:42;;;;;;;0.43;0.43;;;;;;;9.74;100.00;98639.44;5073668;28;20200;-60
2021/12/04 02:27:12;;;;;;;2.53;1.23;;;;;;;9.59;100.00;98640.06;5073186;28;20193;-59
2021/12/04 02:29:47;;;;;;;0.80;0.80;;;;;;;9.59;100.00;98634.03;5073708;28;20682;-59
2021/12/04 02:32:17;;;;;;;0.73;0.73;;;;;;;9.59;100.00;98634.03;5073692;28;20195;-59
2021/12/04 02:34:44;;;;;;;1.33;1.23;;;;;;;9.52;100.00;98627.38;5073285;28;20231;-60
2021/12/04 02:37:11;;;;;;;2.57;1.23;;;;;;;9.45;100.00;98625.03;5073457;28;20622;-60
2021/12/04 02:39:45;;;;;;;1.63;1.30;;;;;;;9.43;100.00;98616.47;5073693;28;20278;-59
2021/12/04 02:42:22;;;;;;;0.83;0.83;;;;;;;9.50;100.00;98611.03;5073402;28;20688;-59
2021/12/04 02:44:49;;;;;;;0.73;0.73;;;;;;;9.45;100.00;98609.50;5073612;28;20273;-60
2021/12/04 02:47:16;;;;;;;0.37;0.37;;;;;;;9.48;100.00;98599.94;5073329;28;20192;-59
2021/12/04 02:49:44;;;;;;;2.20;1.50;;;;;;;9.52;100.00;98597.13;5073134;28;20286;-59
2021/12/04 02:52:14;;;;;;;0.50;0.50;;;;;;;9.54;100.00;98595.34;5073079;28;20200;-60
2021/12/04 02:54:42;;;;;;;1.23;1.23;;;;;;;9.49;100.00;98592.06;5073026;28;20208;-59
2021/12/04 02:57:13;;;;;;;0.70;0.70;;;;;;;9.52;100.00;98604.06;5072963;28;20645;-56
2021/12/04 02:59:41;;;;;;;0.97;0.97;;;;;;;9.53;100.00;98611.78;5072625;28;20196;-56
2021/12/04 03:02:17;;;;;;;0.17;0.17;;;;;;;9.56;100.00;98634.13;5072544;28;20200;-55
2021/12/04 03:04:46;;;;;;;1.87;1.77;;;;;;;9.54;100.00;98651.47;5072536;28;20203;-56
2021/12/04 03:07:13;;;;;;;0.20;0.20;;;;;;;9.46;100.00;98647.44;5072422;28;20571;-60
2021/12/04 03:09:40;;;;;;;0.60;0.60;;;;;;;9.43;100.00;98644.97;5072911;28;20282;-60
2021/12/04 03:12:10;;;;;;;0.77;0.77;;;;;;;9.36;100.00;98643.53;5072737;28;20283;-60
2021/12/04 03:14:37;;;;;;;1.20;0.50;;;;;;;9.33;100.00;98641.03;5072925;28;20202;-59
2021/12/04 03:17:05;;;;;;;1.40;1.30;;;;;;;9.34;100.00;98639.28;5072784;28;20787;-58
2021/12/04 03:19:33;;;;;;;0.77;0.77;;;;;;;9.33;100.00;98640.19;5072671;28;20188;-59
2021/12/04 03:22:02;;;;;;;0.53;0.53;;;;;;;9.29;100.00;98647.22;5072535;28;20284;-59
2021/12/04 03:24:29;;;;;;;0.60;0.60;;;;;;;9.22;100.00;98650.97;5072808;28;20724;-60
2021/12/04 03:26:56;;;;;;;0.67;0.67;;;;;;;9.13;100.00;98656.47;5072301;28;20292;-59
2021/12/04 03:29:27;;;;;;;0.50;0.50;;;;;;;9.08;100.00;98658.38;5072443;28;20275;-59
2021/12/04 03:40:21;;;;;;;1.93;0.73;;;;;;;9.04;100.00;98661.97;5072460;28;20637;-59
2021/12/04 03:42:48;;;;;;;0.93;0.93;;;;;;;8.99;100.00;98658.72;5072164;28;20664;-59
2021/12/04 03:45:17;;;;;;;0.83;0.83;;;;;;;9.21;100.00;98667.38;5072061;28;20282;-60
2021/12/04 03:47:46;;;;;;;0.47;0.47;;;;;;;9.28;100.00;98661.06;5072056;28;20194;-59
2021/12/04 03:50:14;;;;;;;0.63;0.63;;;;;;;9.32;100.00;98665.25;5071926;28;20689;-59
2021/12/04 03:52:41;;;;;;;1.00;1.00;;;;;;;9.29;100.00;98667.94;5071804;28;20329;-56
2021/12/04 03:55:10;;;;;;;1.03;1.03;;;;;;;9.14;100.00;98657.31;5071522;28;20694;-56
2021/12/04 03:57:44;;;;;;;0.80;0.80;;;;;;;8.99;100.00;98664.72;5071759;28;20306;-56
2021/12/04 04:00:12;;;;;;;1.80;1.10;;;;;;;8.87;100.00;98660.00;5071360;28;20204;-56
2021/12/04 04:02:40;;;;;;;2.20;1.03;;;;;;;8.82;100.00;98658.47;5071367;28;20196;-55
2021/12/04 04:05:09;;;;;;;0.40;0.40;;;;;;;8.90;100.00;98664.22;5071498;28;20585;-57
2021/12/04 04:07:36;;;;;;;0.47;0.47;;;;;;;8.86;100.00;98660.91;5071435;28;20615;-56
2021/12/04 04:10:03;;;;;;;0.27;0.23;;;;;;;8.85;100.00;98666.97;5071044;28;20778;-57
2021/12/04 04:12:30;;;;;;;0.47;0.47;;;;;;;8.77;100.00;98657.78;5071079;28;20192;-56
2021/12/04 04:14:57;;;;;;;0.40;0.40;;;;;;;8.80;100.00;98657.69;5071058;28;20196;-56
2021/12/04 04:17:26;;;;;;;5.20;0.80;;;;;;;8.71;100.00;98645.91;5071047;28;20307;-57
2021/12/04 04:19:54;;;;;;;1.33;0.90;;;;;;;8.87;100.00;98651.38;5071078;28;20717;-56
2021/12/04 04:22:21;;;;;;;0.50;0.50;;;;;;;8.88;100.00;98642.72;5070810;28;20591;-55
2021/12/04 04:24:48;;;;;;;0.50;0.50;;;;;;;8.77;100.00;98647.44;5071152;28;20199;-55
2021/12/04 04:27:15;;;;;;;0.40;0.40;;;;;;;8.79;100.00;98659.44;5071233;28;20276;-60
2021/12/04 04:29:42;;;;;;;1.87;1.30;;;;;;;8.70;100.00;98642.47;5071224;28;20229;-60
2021/12/04 04:32:09;;;;;;;0.83;0.50;;;;;;;8.61;100.00;98653.13;5071175;28;20286;-60
2021/12/04 04:34:38;;;;;;;1.90;0.53;;;;;;;8.70;100.00;98658.00;5070956;28;20323;-57
2021/12/04 04:37:16;;;;;;;0.20;0.20;;;;;;;8.66;100.00;98666.78;5070525;28;20277;-56
2021/12/04 04:59:08;;;;;;;0.53;0.53;;;;;;;8.99;100.00;98671.66;5070514;28;20244;-56
2021/12/04 05:12:47;;;;;;;1.10;0.30;;;;;;;8.70;100.00;98670.91;5070610;28;20207;-60
2021/12/04 05:15:20;;;;;;;0.60;0.60;;;;;;;8.85;100.00;98679.06;5070900;28;20203;-60
2021/12/04 05:18:05;;;;;;;0.17;0.17;;;;;;;8.83;100.00;98686.03;5070452;28;20654;-59
2021/12/04 05:20:35;;;;;;;2.30;1.83;;;;;;;8.73;100.00;98680.31;5070647;28;20289;-59
2021/12/04 05:23:02;;;;;;;0.30;0.30;;;;;;;8.74;100.00;98679.44;5070323;28;20595;-60
2021/12/04 05:25:31;;;;;;;0.10;0.10;;;;;;;8.70;100.00;98688.19;5070489;28;20200;-60
2021/12/04 05:27:58;;;;;;;1.80;0.73;;;;;;;8.70;100.00;98678.69;5070710;28;20196;-59
2021/12/04 05:30:25;;;;;;;1.40;0.83;;;;;;;8.68;100.00;98685.69;5070270;28;20206;-59
2021/12/04 05:32:52;;;;;;;0.37;0.37;;;;;;;8.79;100.00;98689.63;5070313;28;20202;-59
2021/12/04 05:35:20;;;;;;;2.53;1.03;;;;;;;8.78;100.00;98691.38;5069857;28;20232;-56
2021/12/04 05:37:47;;;;;;;0.40;0.40;;;;;;;8.80;100.00;98696.50;5070217;28;20230;-56
2021/12/04 05:40:16;;;;;;;1.37;1.27;;;;;;;8.78;100.00;98690.53;5070143;28;20664;-56
2021/12/04 05:42:45;;;;;;;0.17;0.17;;;;;;;8.74;100.00;98685.44;5070053;28;20202;-55
2021/12/04 05:45:18;;;;;;;0.70;0.63;;;;;;;8.86;100.00;98704.03;5069984;28;20206;-56
2021/12/04 05:47:50;;;;;;;1.50;0.90;;;;;;;8.89;100.00;98698.75;5069737;28;20664;-56
2021/12/04 05:50:35;;;;;;;0.20;0.20;;;;;;;8.93;100.00;98701.16;5069670;28;20257;-56
2021/12/04 05:53:16;;;;;;;3.20;1.87;;;;;;;8.90;100.00;98690.09;5049794;28;20772;-56
2021/12/04 05:55:52;;;;;;;0.83;0.83;;;;;;;8.82;100.00;98700.69;5055208;28;20222;-56
2021/12/04 05:58:22;;;;;;;1.10;1.10;;;;;;;8.76;100.00;98702.66;5072783;28;20232;-60
2021/12/04 06:00:49;;;;;;;0.90;0.90;;;;;;;8.59;100.00;98685.97;5073133;28;20224;-60
2021/12/04 06:03:17;;;;;;;0.63;0.63;;;;;;;8.61;100.00;98697.09;5074109;28;20223;-60
2021/12/04 06:05:44;;;;;;;1.00;0.30;;;;;;;8.58;100.00;98689.44;5072963;28;20255;-59
2021/12/04 06:08:11;;;;;;;0.30;0.30;;;;;;;8.71;100.00;98701.06;5073263;28;20689;-59
2021/12/04 06:10:38;;;;;;;1.23;1.10;;;;;;;8.78;100.00;98701.72;5073332;28;20232;-59
2021/12/04 06:13:05;;;;;;;0.77;0.77;;;;;;;8.70;100.00;98703.69;5073273;28;20361;-60
2021/12/04 06:15:34;;;;;;;1.83;1.13;;;;;;;8.83;100.00;98714.47;5073181;28;20224;-60
2021/12/04 06:18:01;;;;;;;0.27;0.27;;;;;;;8.98;100.00;98709.63;5073047;28;20238;-60
2021/12/04 06:23:24;;;;;;;0.13;0.13;;;;;;;9.15;100.00;98714.19;5030787;28;20229;-60
2021/12/04 06:25:51;;;;;;;0.93;0.93;;;;;;;9.07;100.00;98713.63;5062430;28;20227;-60
2021/12/04 06:28:19;;;;;;;0.90;0.90;;;;;;;9.03;100.00;98717.22;5072881;28;20224;-59
2021/12/04 06:30:47;;;;;;;0.47;0.47;;;;;;;8.98;100.00;98721.72;5071575;28;20300;-56
2021/12/04 06:33:17;;;;;;;1.17;1.13;;;;;;;8.98;100.00;98717.41;5071948;28;20355;-57
2021/12/04 06:35:46;;;;;;;5.83;0.70;;;;;;;9.03;100.00;98718.06;5068835;28;20271;-56
2021/12/04 06:38:15;;;;;;;0.60;0.60;;;;;;;9.01;100.00;98730.22;5071003;28;20223;-59
2021/12/04 06:40:43;;;;;;;0.93;0.43;;;;;;;9.07;100.00;98742.09;5072309;28;20211;-59
2021/12/04 06:43:10;;;;;;;1.10;0.67;;;;;;;8.96;100.00;98749.41;5071871;28;20212;-59
2021/12/04 06:45:41;;;;;;;0.50;0.50;;;;;;;8.85;100.00;98761.84;5071910;28;20307;-59
2021/12/04 06:48:12;;;;;;;0.40;0.40;;;;;;;8.88;100.00;98765.19;5072123;28;20220;-57
2021/12/04 06:50:43;;;;;;;0.63;0.63;;;;;;;8.87;100.00;98763.50;5072142;28;20227;-56
2021/12/04 06:53:22;;;;;;;0.67;0.60;;;;;;;8.84;100.00;98765.34;5072494;28;20227;-60
2021/12/04 06:55:52;;;;;;;3.63;0.87;;;;;;;8.82;100.00;98765.38;5072672;28;20699;-59
2021/12/04 06:58:19;;;;;;;0.23;0.23;;;;;;;8.58;100.00;98761.88;5072529;28;20247;-60
2021/12/04 07:00:47;;;;;;;0.30;0.30;;;;;;;8.41;100.00;98769.34;5071918;28;20216;-59
2021/12/04 07:03:15;;;;;;;1.30;0.87;;;;;;;8.44;100.00;98776.16;5072270;28;20219;-59
2021/12/04 07:05:42;;;;;;;0.67;0.67;;;;;;;8.04;100.00;98728.25;5072133;28;20322;-59
2021/12/04 07:08:09;;;;;;;0.77;0.77;;;;;;;8.29;100.00;98769.69;5070982;28;20234;-60
2021/12/04 07:10:37;;;;;;;1.40;1.07;;;;;;;8.26;100.00;98772.38;5071686;28;20215;-59
2021/12/04 07:13:05;;;;;;;2.30;2.03;;;;;;;8.25;100.00;98781.84;5071447;28;20230;-60
2021/12/04 07:15:32;;;;;;;1.93;1.83;;;;;;;8.18;100.00;98789.88;5070899;28;20618;-60
2021/12/04 07:18:00;;;;;;;2.23;1.03;;;;;;;8.17;100.00;98790.75;5071587;28;20231;-60
2021/12/04 07:20:29;;;;;;;0.80;0.80;;;;;;;8.21;100.00;98795.78;5071092;28;20231;-59
2021/12/04 07:22:56;;;;;;;0.83;0.83;;;;;;;8.12;100.00;98796.09;5069795;28;20311;-60
2021/12/04 07:25:24;;;;;;;1.00;1.00;;;;;;;8.16;100.00;98805.41;5067606;28;20238;-61
2021/12/04 07:27:51;;;;;;;0.30;0.30;;;;;;;8.20;100.00;98798.41;5069589;28;20294;-61
2021/12/04 07:30:19;;;;;;;0.57;0.57;;;;;;;8.15;100.00;98793.38;5070005;28;20227;-59
2021/12/04 07:32:47;;;;;;;1.50;0.77;;;;;;;8.18;100.00;98795.88;5067276;28;20314;-58
2021/12/04 07:35:15;;;;;;;1.10;1.00;;;;;;;8.25;100.00;98784.44;5070096;28;20807;-59
2021/12/04 07:37:44;;;;;;;0.47;0.47;;;;;;;8.33;100.00;98792.00;5069882;28;20223;-59
2021/12/04 07:40:12;;;;;;;1.77;1.67;;;;;;;8.28;100.00;98802.47;5069951;28;20295;-58
2021/12/04 07:42:39;;;;;;;1.40;0.87;;;;;;;8.12;100.00;98798.66;5068458;28;20273;-59
2021/12/04 07:45:07;;;;;;;1.73;1.63;;;;;;;8.14;100.00;98801.19;5068556;28;20230;-58
2021/12/04 07:47:34;;;;;;;0.67;0.67;;;;;;;8.21;100.00;98793.22;5069081;28;20304;-59
2021/12/04 07:50:02;;;;;;;3.13;1.83;;;;;;;8.24;100.00;98798.25;5068584;28;20220;-59
2021/12/04 07:52:29;;;;;;;0.50;0.50;;;;;;;8.16;100.00;98804.56;5068391;28;20248;-58
2021/12/04 07:54:57;;;;;;;0.93;0.60;;;;;;;8.26;100.00;98806.81;5066944;28;20235;-60
2021/12/04 07:57:25;;;;;;;1.80;1.10;;;;;;;8.34;100.00;98809.22;5068137;28;20232;-56
2021/12/04 07:59:52;;;;;;;0.87;0.87;;;;;;;8.38;100.00;98815.97;5068285;28;20208;-57
2021/12/04 08:02:20;;;;;;;1.03;0.83;;;;;;;8.40;100.00;98821.94;5069476;28;20211;-55
2021/12/04 08:04:47;;;;;;;1.60;1.03;;;;;;;8.39;100.00;98822.84;5068378;28;20699;-56
2021/12/04 08:07:14;;;;;;;1.70;1.13;;;;;;;8.56;100.00;98827.50;5069799;28;20224;-54
2021/12/04 08:09:41;;;;;;;0.43;0.43;;;;;;;8.48;100.00;98835.47;5070278;28;20216;-56
2021/12/04 08:12:11;;;;;;;1.03;1.03;;;;;;;8.50;100.00;98820.75;5070342;28;20226;-56
2021/12/04 08:14:38;;;;;;;0.87;0.87;;;;;;;8.88;100.00;98841.97;5069880;28;20302;-58
2021/12/04 08:17:06;;;;;;;0.60;0.37;;;;;;;9.09;100.00;98839.53;5070526;28;20234;-56
2021/12/04 08:19:34;;;;;;;0.47;0.47;;;;;;;9.25;100.00;98839.88;5070042;28;20618;-59
2021/12/04 08:22:00;;;;;;;1.03;0.93;;;;;;;9.38;100.00;98848.03;5070645;28;20315;-61
2021/12/04 08:24:27;;;;;;;2.23;1.53;;;;;;;9.50;100.00;98857.13;5069902;28;20216;-60
2021/12/04 08:26:55;;;;;;;0.87;0.87;;;;;;;9.56;100.00;98862.09;5068972;28;20216;-60
2021/12/04 08:29:23;;;;;;;1.07;1.07;;;;;;;9.38;100.00;98848.03;5069127;28;20216;-59
2021/12/04 08:31:51;;;;;;;1.57;1.37;;;;;;;9.35;100.00;98855.94;5070481;28;20219;-62
2021/12/04 08:34:18;;;;;;;2.23;2.03;;;;;;;9.48;100.00;98845.06;5061541;28;20327;-60
2021/12/04 08:36:46;;;;;;;0.70;0.70;;;;;;;9.56;100.00;98849.16;5061732;28;20244;-62
2021/12/04 08:39:13;;;;;;;1.27;1.23;;;;;;;9.60;100.00;98845.53;5063026;28;20231;-59
2021/12/04 08:41:41;;;;;;;1.70;0.77;;;;;;;9.68;100.00;98839.19;5065171;28;20277;-60
2021/12/04 08:44:08;;;;;;;0.53;0.53;;;;;;;9.65;100.00;98828.09;5063771;28;20216;-59
2021/12/04 08:46:38;;;;;;;1.53;1.10;;;;;;;9.81;100.00;98839.59;5064997;28;20221;-60
2021/12/04 08:49:05;;;;;;;1.20;1.10;;;;;;;9.83;100.00;98841.22;5062757;28;20221;-61
2021/12/04 08:51:33;;;;;;;1.30;1.23;;;;;;;9.90;100.00;98836.66;5067496;28;20294;-61
2021/12/04 08:54:01;;;;;;;0.50;0.50;;;;;;;9.87;100.00;98834.19;5065922;28;20224;-61
2021/12/04 08:56:28;;;;;;;0.93;0.87;;;;;;;9.98;100.00;98837.22;5050560;28;20736;-62
2021/12/04 08:58:55;;;;;;;0.60;0.60;;;;;;;10.07;100.00;98833.44;5068281;28;20274;-60
2021/12/04 09:01:25;;;;;;;1.80;0.90;;;;;;;10.15;100.00;98831.41;5069183;28;20307;-57
2021/12/04 09:03:57;;;;;;;0.50;0.47;;;;;;;10.19;100.00;98828.66;5068382;28;20661;-57
2021/12/04 09:06:24;;;;;;;1.70;0.73;;;;;;;10.30;100.00;98820.47;5068998;28;20331;-57
2021/12/04 09:08:52;;;;;;;3.37;2.03;;;;;;;10.35;100.00;98828.09;5069260;28;20242;-57
2021/12/04 09:11:22;;;;;;;1.30;1.20;;;;;;;10.39;100.00;98821.84;5070006;28;20258;-58
2021/12/04 09:13:51;;;;;;;0.37;0.37;;;;;;;10.40;100.00;98833.94;5065896;28;20307;-57
2021/12/04 09:16:19;;;;;;;0.57;0.57;;;;;;;10.30;100.00;98824.81;5065686;28;20231;-57
2021/12/04 09:18:46;;;;;;;0.77;0.77;;;;;;;10.41;100.00;98828.69;5067615;28;20223;-57
2021/12/04 09:21:14;;;;;;;0.80;0.80;;;;;;;10.35;100.00;98799.56;5069605;28;20218;-58
2021/12/04 09:23:46;;;;;;;5.57;1.43;;;;;;;10.51;100.00;98819.63;5069400;28;20302;-58
2021/12/04 09:26:14;;;;;;;2.57;1.00;;;;;;;10.61;100.00;98821.88;5069555;28;20703;-58
2021/12/04 09:28:48;;;;;;;0.93;0.93;;;;;;;10.65;100.00;98816.50;5069090;28;20323;-57
2021/12/04 09:31:30;;;;;;;1.60;1.03;;;;;;;10.74;100.00;98804.88;5069292;28;20726;-58
2021/12/04 09:34:27;;;;;;;0.30;0.30;;;;;;;10.80;100.00;98795.13;5069245;28;20219;-57
2021/12/04 09:40:17;;;;;;;6.23;2.43;;;;;;;10.81;100.00;98794.22;5060605;28;20234;-57
2021/12/04 10:02:10;;;;;;;1.17;1.17;;;;;;;11.64;100.00;98775.88;5049054;28;20220;-58
2021/12/04 10:04:59;;;;;;;6.30;1.80;;;;;;;11.71;100.00;98773.88;5060422;28;20242;-57
2021/12/04 10:13:20;;;;;;;4.90;1.13;;;;;;;11.54;100.00;98746.88;5069114;28;20227;-58
2021/12/04 10:24:42;;;;;;;0.90;0.90;;;;;;;11.20;100.00;98751.88;5058383;28;20255;-57
2021/12/04 10:32:56;;;;;;;0.60;0.60;;;;;;;11.27;100.00;98763.69;5068709;28;20220;-58
2021/12/04 10:35:25;;;;;;;3.20;1.80;;;;;;;11.30;100.00;98768.75;5068473;28;20334;-58
2021/12/04 10:37:58;;;;;;;2.10;2.00;;;;;;;11.28;100.00;98768.00;5068556;28;20224;-58
2021/12/04 10:40:34;;;;;;;1.27;1.17;;;;;;;11.26;100.00;98773.25;5068845;28;20224;-58
2021/12/04 10:43:04;;;;;;;2.43;1.60;;;;;;;11.22;100.00;98776.03;5078546;28;20305;-58
2021/12/04 10:45:34;;;;;;;1.03;1.03;;;;;;;11.24;100.00;98775.06;5070904;28;20302;-59
2021/12/04 10:48:06;;;;;;;1.23;1.23;;;;;;;11.51;100.00;98783.38;5071976;28;20223;-61
2021/12/04 10:50:41;;;;;;;1.73;0.93;;;;;;;11.70;100.00;98774.78;5072991;28;20583;-58
2021/12/04 10:53:12;;;;;;;2.40;1.43;;;;;;;11.73;100.00;98764.25;5072667;28;20199;-60
2021/12/04 10:55:46;;;;;;;0.43;0.43;;;;;;;12.06;100.00;98770.53;5072726;28;20254;-57
2021/12/04 10:58:38;;;;;;;2.63;2.30;;;;;;;12.12;98.58;98772.84;5072496;28;20220;-59
2021/12/04 11:01:24;;;;;;;1.60;1.50;;;;;;;12.15;98.82;98777.06;5072707;28;20693;-59
2021/12/04 11:04:00;;;;;;;2.40;2.13;;;;;;;12.05;98.67;98757.59;5072560;28;20210;-58
2021/12/04 11:07:03;;;;;;;1.93;1.83;;;;;;;12.08;98.94;98753.06;5072640;28;20192;-58
2021/12/04 11:21:13;;;;;;;1.07;1.07;;;;;;;12.19;97.99;98771.63;5072360;28;20237;-58
2021/12/04 11:26:53;;;;;;;3.10;1.77;;;;;;;12.03;99.53;98760.28;5052172;28;20201;-59
2021/12/04 11:35:30;;;;;;;0.63;0.63;;;;;;;11.73;100.00;98762.50;5071344;28;20231;-60
2021/12/04 11:38:13;;;;;;;11.27;2.00;;;;;;;11.65;99.73;98759.38;5068205;28;20216;-59
2021/12/04 11:43:36;;;;;;;1.23;1.17;;;;;;;11.69;100.00;98755.75;5067617;28;20196;-56
2021/12/04 11:46:18;;;;;;;1.77;1.47;;;;;;;11.71;99.69;98758.28;5070923;28;20283;-58
2021/12/04 11:48:46;;;;;;;0.80;0.80;;;;;;;11.77;99.56;98758.88;5071243;28;20249;-58
2021/12/04 11:51:17;;;;;;;2.03;1.80;;;;;;;11.81;99.63;98751.78;5071540;28;20274;-57
2021/12/04 11:53:44;;;;;;;4.77;2.30;;;;;;;11.69;100.00;98754.91;5071719;28;20233;-59
2021/12/04 11:56:16;;;;;;;1.60;1.50;;;;;;;11.68;100.00;98745.41;5071478;28;20202;-59
2021/12/04 11:58:45;;;;;;;1.33;1.17;;;;;;;11.86;100.00;98757.59;5071889;28;20611;-57
2021/12/04 12:01:23;;;;;;;1.00;1.00;;;;;;;11.89;99.60;98760.06;5071837;28;20278;-58
2021/12/04 12:03:54;;;;;;;2.20;2.00;;;;;;;11.90;100.00;98753.94;5071688;28;20655;-57
2021/12/04 12:06:30;;;;;;;1.93;1.73;;;;;;;11.99;100.00;98754.34;5071404;28;20234;-57
2021/12/04 12:09:04;;;;;;;1.60;1.57;;;;;;;11.94;100.00;98750.31;5071367;28;20194;-58
2021/12/04 12:11:31;;;;;;;2.73;2.13;;;;;;;11.82;100.00;98761.25;5071337;28;20587;-57
2021/12/04 12:14:00;;;;;;;1.80;1.67;;;;;;;11.81;100.00;98756.97;5071296;28;20720;-57
2021/12/04 12:16:35;;;;;;;1.33;1.27;;;;;;;11.86;100.00;98748.03;5071313;28;20286;-58
2021/12/04 12:19:08;;;;;;;1.43;1.33;;;;;;;11.76;100.00;98751.13;5071501;28;20613;-57
2021/12/04 12:21:45;;;;;;;2.77;1.70;;;;;;;11.83;100.00;98750.81;5071317;28;20261;-57
2021/12/04 12:27:22;;;;;;;9.87;2.97;;;;;;;12.04;100.00;98754.16;5049761;28;20200;-58
2021/12/04 12:38:12;;;;;;;4.30;2.23;;;;;;;12.20;100.00;98746.44;5070796;28;20349;-57
2021/12/04 12:40:40;;;;;;;2.30;1.93;;;;;;;12.08;100.00;98753.06;5070746;28;20272;-57
2021/12/04 12:43:13;;;;;;;1.57;1.17;;;;;;;12.09;100.00;98749.56;5071183;28;20646;-57
2021/12/04 12:45:40;;;;;;;8.23;2.07;;;;;;;12.10;100.00;98755.59;5070583;28;20282;-57
2021/12/04 12:48:10;;;;;;;2.70;1.90;;;;;;;12.06;100.00;98754.09;5070696;28;20749;-57
2021/12/04 12:50:43;;;;;;;1.80;0.97;;;;;;;12.00;100.00;98757.81;5070835;28;20196;-57
2021/12/04 12:53:13;;;;;;;1.30;1.17;;;;;;;11.90;100.00;98759.16;5070290;28;20570;-57
2021/12/04 12:55:47;;;;;;;3.97;2.33;;;;;;;11.85;100.00;98756.75;5071113;28;20279;-57
2021/12/04 12:58:22;;;;;;;1.90;1.80;;;;;;;11.85;100.00;98771.53;5070576;28;20562;-58
2021/12/04 13:12:00;;;;;;;3.07;0.90;;;;;;;11.80;100.00;98789.09;5070329;28;20219;-56
2021/12/04 13:14:29;;;;;;;2.43;1.73;;;;;;;11.83;100.00;98787.19;5070349;28;20202;-58
2021/12/04 13:17:05;;;;;;;1.83;1.77;;;;;;;11.86;100.00;98792.25;5070365;28;20592;-58
2021/12/04 13:19:35;;;;;;;5.00;2.47;;;;;;;11.81;100.00;98782.97;5070241;28;20266;-57
2021/12/04 13:22:08;;;;;;;1.43;1.33;;;;;;;11.82;100.00;98782.06;5070162;28;20257;-56
2021/12/04 13:24:37;;;;;;;5.33;3.10;;;;;;;11.73;100.00;98772.91;5070180;28;20206;-56
2021/12/04 13:29:37;;;;;;;3.73;3.43;;;;;;;11.98;100.00;98788.22;5070424;28;20245;-56
2021/12/04 13:32:05;;;;;;;2.80;2.60;;;;;;;12.02;100.00;98787.19;5070029;28;20230;-57
2021/12/04 13:34:33;;;;;;;2.03;1.17;;;;;;;11.85;100.00;98761.94;5069901;28;20243;-57
2021/12/04 13:37:01;;;;;;;1.97;1.53;;;;;;;11.81;100.00;98778.63;5069887;28;20188;-57
2021/12/04 13:39:30;;;;;;;1.97;1.87;;;;;;;11.85;100.00;98780.16;5070089;28;20229;-57
2021/12/04 13:41:58;;;;;;;1.50;1.47;;;;;;;11.79;100.00;98787.41;5069919;28;20291;-58
2021/12/04 13:44:28;;;;;;;2.83;2.63;;;;;;;11.72;100.00;98796.34;5069883;28;20215;-58
2021/12/04 13:47:01;;;;;;;2.13;2.00;;;;;;;11.48;100.00;98803.47;5069997;28;20199;-57
2021/12/04 13:49:33;;;;;;;1.73;1.60;;;;;;;11.46;100.00;98805.31;5069758;28;20196;-58
2021/12/04 13:52:06;;;;;;;0.93;0.93;;;;;;;11.42;100.00;98796.78;5069970;28;20245;-56
2021/12/04 13:54:39;;;;;;;2.60;1.37;;;;;;;11.37;100.00;98809.16;5069847;28;20199;-57
2021/12/04 13:57:09;;;;;;;4.83;2.77;;;;;;;11.21;100.00;98776.94;5069574;28;20196;-58
2021/12/04 13:59:36;;;;;;;2.73;1.10;;;;;;;11.26;100.00;98804.41;5069695;28;20219;-56
2021/12/04 14:02:04;;;;;;;3.67;1.77;;;;;;;11.25;100.00;98812.28;5069524;28;20199;-56
2021/12/04 14:04:31;;;;;;;1.67;1.40;;;;;;;11.19;100.00;98810.75;5069838;28;20203;-57